createdAt,value
2018-09-03T00:00:01.322Z,23.03
2018-09-03T00:02:29.840Z,21.87
2018-09-03T00:04:57.350Z,21.70
2018-09-03T00:07:24.862Z,22.30
2018-09-03T00:09:52.415Z,22.83
2018-09-03T00:12:19.921Z,22.73
2018-09-03T00:14:47.460Z,22.83
2018-09-03T00:17:14.994Z,24.10
2018-09-03T00:19:42.665Z,23.97
2018-09-03T00:22:10.208Z,20.23
2018-09-03T00:24:37.756Z,22.90
2018-09-03T00:27:05.317Z,21.43
2018-09-03T00:29:32.894Z,21.13
2018-09-03T00:32:06.192Z,21.93
2018-09-03T00:34:39.411Z,24.20
2018-09-03T00:37:12.554Z,21.90
2018-09-03T00:39:45.786Z,19.77
2018-09-03T00:42:18.953Z,21.60
2018-09-03T00:44:52.170Z,24.23
2018-09-03T00:47:19.709Z,21.10
2018-09-03T00:49:47.308Z,20.27
2018-09-03T00:52:14.830Z,20.10
2018-09-03T00:54:42.442Z,19.70
2018-09-03T00:57:09.951Z,28.17
2018-09-03T00:59:37.492Z,20.27
2018-09-03T01:02:05.132Z,19.50
2018-09-03T01:04:32.768Z,18.87
2018-09-03T01:07:00.273Z,19.50
2018-09-03T01:09:27.769Z,21.87
2018-09-03T01:11:55.362Z,21.40
2018-09-03T01:14:22.864Z,20.33
2018-09-03T01:16:50.381Z,18.87
2018-09-03T01:19:17.903Z,20.80
2018-09-03T01:21:45.455Z,20.57
2018-09-03T01:24:12.937Z,19.33
2018-09-03T01:26:40.473Z,20.57
2018-09-03T01:29:07.938Z,20.37
2018-09-03T01:31:35.452Z,20.17
2018-09-03T01:34:02.996Z,20.33
2018-09-03T01:36:30.506Z,21.57
2018-09-03T01:38:58.025Z,18.60
2018-09-03T01:41:25.509Z,21.73
2018-09-03T01:43:53.018Z,19.13
2018-09-03T01:46:20.556Z,21.67
2018-09-03T01:48:48.110Z,18.20
2018-09-03T01:51:15.663Z,19.03
2018-09-03T01:53:43.168Z,20.77
2018-09-03T01:56:10.637Z,20.10
2018-09-03T01:58:38.140Z,19.30
2018-09-03T02:01:05.712Z,23.30
2018-09-03T02:03:33.469Z,21.20
2018-09-03T02:06:01.013Z,20.30
2018-09-03T02:08:28.978Z,22.70
2018-09-03T02:10:56.474Z,21.17
2018-09-03T02:13:24.274Z,22.77
2018-09-03T02:15:51.756Z,21.27
2018-09-03T02:18:19.247Z,22.13
2018-09-03T02:20:46.765Z,20.37
2018-09-03T02:23:14.267Z,19.80
2018-09-03T02:25:41.765Z,20.50
2018-09-03T02:28:09.264Z,20.03
2018-09-03T02:30:36.825Z,19.77
2018-09-03T02:33:04.466Z,23.60
2018-09-03T02:35:32.001Z,20.60
2018-09-03T02:37:59.493Z,21.70
2018-09-03T02:40:26.980Z,21.20
2018-09-03T02:42:54.472Z,19.83
2018-09-03T02:45:21.978Z,22.70
2018-09-03T02:47:49.495Z,22.40
2018-09-03T02:50:16.996Z,24.53
2018-09-03T02:52:44.542Z,21.03
2018-09-03T02:55:12.099Z,23.10
2018-09-03T02:57:39.604Z,20.03
2018-09-03T03:00:07.227Z,21.70
2018-09-03T03:02:34.746Z,21.60
2018-09-03T03:05:02.291Z,21.83
2018-09-03T03:07:29.801Z,19.57
2018-09-03T03:09:57.350Z,20.70
2018-09-03T03:12:25.401Z,21.37
2018-09-03T03:14:56.185Z,20.87
2018-09-03T03:17:23.654Z,21.10
2018-09-03T03:19:51.135Z,21.73
2018-09-03T03:22:19.139Z,24.20
2018-09-03T03:24:46.643Z,22.10
2018-09-03T03:27:14.570Z,22.63
2018-09-03T03:29:42.094Z,22.03
2018-09-03T03:32:09.609Z,19.97
2018-09-03T03:34:37.139Z,20.50
2018-09-03T03:37:04.768Z,22.43
2018-09-03T03:39:32.293Z,21.70
2018-09-03T03:41:59.847Z,22.30
2018-09-03T03:44:27.425Z,20.60
2018-09-03T03:46:54.969Z,21.73
2018-09-03T03:49:22.720Z,22.80
2018-09-03T03:51:50.250Z,20.03
2018-09-03T03:54:17.782Z,21.03
2018-09-03T03:56:45.286Z,20.53
2018-09-03T03:59:12.831Z,21.57
2018-09-03T04:01:40.371Z,22.73
2018-09-03T04:04:07.861Z,22.30
2018-09-03T04:06:35.357Z,20.87
2018-09-03T04:09:03.980Z,24.67
2018-09-03T04:11:31.482Z,19.63
2018-09-03T04:13:59.068Z,22.40
2018-09-03T04:16:26.605Z,20.70
2018-09-03T04:18:54.136Z,21.70
2018-09-03T04:21:21.708Z,24.33
2018-09-03T04:23:49.253Z,24.10
2018-09-03T04:26:16.781Z,19.83
2018-09-03T04:28:44.379Z,23.00
2018-09-03T04:31:11.942Z,21.63
2018-09-03T04:33:39.469Z,22.17
2018-09-03T04:36:07.041Z,22.60
2018-09-03T04:38:34.608Z,22.00
2018-09-03T04:41:02.168Z,20.60
2018-09-03T04:43:29.733Z,22.47
2018-09-03T04:45:57.239Z,27.80
2018-09-03T04:48:24.847Z,21.63
2018-09-03T04:50:52.392Z,22.83
2018-09-03T04:53:19.930Z,21.33
2018-09-03T04:55:47.412Z,20.83
2018-09-03T04:58:14.942Z,19.20
2018-09-03T05:00:42.479Z,19.37
2018-09-03T05:03:09.997Z,21.67
2018-09-03T05:05:37.547Z,19.47
2018-09-03T05:08:05.089Z,19.63
2018-09-03T05:10:32.562Z,20.57
2018-09-03T05:13:00.089Z,21.20
2018-09-03T05:15:27.586Z,20.07
2018-09-03T05:17:55.165Z,22.97
2018-09-03T05:20:22.727Z,21.03
2018-09-03T05:22:50.210Z,20.67
2018-09-03T05:25:17.712Z,20.20
2018-09-03T05:27:45.275Z,23.67
2018-09-03T05:30:12.781Z,22.47
2018-09-03T05:32:40.284Z,20.80
2018-09-03T05:35:07.842Z,21.77
2018-09-03T05:37:35.324Z,25.43
2018-09-03T05:40:02.888Z,18.73
2018-09-03T05:42:30.401Z,18.70
2018-09-03T05:44:57.885Z,22.30
2018-09-03T05:47:25.377Z,22.70
2018-09-03T05:49:52.924Z,19.87
2018-09-03T05:52:20.406Z,23.07
2018-09-03T05:54:47.917Z,21.70
2018-09-03T05:57:15.472Z,22.40
2018-09-03T05:59:42.975Z,20.17
2018-09-03T06:02:10.539Z,21.60
2018-09-03T06:04:38.105Z,22.10
2018-09-03T06:07:05.691Z,22.60
2018-09-03T06:09:33.219Z,21.90
2018-09-03T06:12:00.721Z,21.73
2018-09-03T06:14:28.199Z,24.77
2018-09-03T06:16:55.652Z,26.63
2018-09-03T06:19:23.181Z,23.83
2018-09-03T06:21:50.689Z,23.70
2018-09-03T06:24:18.202Z,20.87
2018-09-03T06:26:45.780Z,21.47
2018-09-03T06:29:13.300Z,22.73
2018-09-03T06:31:40.784Z,22.57
2018-09-03T06:34:08.346Z,20.37
2018-09-03T06:36:35.856Z,23.93
2018-09-03T06:39:04.844Z,21.30
2018-09-03T06:41:32.449Z,20.93
2018-09-03T06:43:59.993Z,21.03
2018-09-03T06:46:27.577Z,22.23
2018-09-03T06:48:55.115Z,21.47
2018-09-03T06:51:22.623Z,20.07
2018-09-03T06:53:50.162Z,20.50
2018-09-03T06:56:17.696Z,21.93
2018-09-03T06:58:45.228Z,19.23
2018-09-03T07:01:13.064Z,20.40
2018-09-03T07:03:41.021Z,20.97
2018-09-03T07:06:08.564Z,19.90
2018-09-03T07:08:36.841Z,18.83
2018-09-03T07:11:04.565Z,21.00
2018-09-03T07:13:32.066Z,20.10
2018-09-03T07:15:59.661Z,19.27
2018-09-03T07:18:27.236Z,18.37
2018-09-03T07:20:54.763Z,19.27
2018-09-03T07:23:22.260Z,17.57
2018-09-03T07:25:49.790Z,16.73
2018-09-03T07:28:17.371Z,16.77
2018-09-03T07:30:44.904Z,19.17
2018-09-03T07:33:12.449Z,16.17
2018-09-03T07:35:39.970Z,17.03
2018-09-03T07:38:07.467Z,14.60
2018-09-03T07:40:35.030Z,16.00
2018-09-03T07:43:02.644Z,17.03
2018-09-03T07:45:30.220Z,15.70
2018-09-03T07:47:57.752Z,13.70
2018-09-03T07:50:25.280Z,15.30
2018-09-03T07:52:52.777Z,13.20
2018-09-03T07:55:20.311Z,13.13
2018-09-03T07:57:47.853Z,14.53
2018-09-03T08:00:15.440Z,16.27
2018-09-03T08:02:42.956Z,13.43
2018-09-03T08:05:10.455Z,14.00
2018-09-03T08:07:37.952Z,17.63
2018-09-03T08:10:06.535Z,16.47
2018-09-03T08:12:34.082Z,15.87
2018-09-03T08:15:01.604Z,19.40
2018-09-03T08:17:29.149Z,15.80
2018-09-03T08:19:56.698Z,17.50
2018-09-03T08:22:24.286Z,16.53
2018-09-03T08:24:51.836Z,21.03
2018-09-03T08:27:19.348Z,17.90
2018-09-03T08:29:46.982Z,19.77
2018-09-03T08:32:14.544Z,17.37
2018-09-03T08:34:42.080Z,18.40
2018-09-03T08:37:09.595Z,21.37
2018-09-03T08:39:37.086Z,18.00
2018-09-03T08:42:04.917Z,21.07
2018-09-03T08:44:32.461Z,19.03
2018-09-03T08:46:59.997Z,19.03
2018-09-03T08:49:27.527Z,16.80
2018-09-03T08:51:55.065Z,20.17
2018-09-03T08:54:22.605Z,20.03
2018-09-03T08:56:50.187Z,18.30
2018-09-03T08:59:17.726Z,20.10
2018-09-03T09:01:45.252Z,17.80
2018-09-03T09:04:12.769Z,19.53
2018-09-03T09:06:40.341Z,18.23
2018-09-03T09:09:08.483Z,19.60
2018-09-03T09:11:36.114Z,17.50
2018-09-03T09:14:03.655Z,19.33
2018-09-03T09:16:31.241Z,17.40
2018-09-03T09:18:58.779Z,19.30
2018-09-03T09:21:26.349Z,19.23
2018-09-03T09:23:53.853Z,19.20
2018-09-03T09:26:21.366Z,19.10
2018-09-03T09:28:48.868Z,18.23
2018-09-03T09:31:16.705Z,17.13
2018-09-03T09:33:44.280Z,19.07
2018-09-03T09:36:11.938Z,19.93
2018-09-03T09:38:39.556Z,17.33
2018-09-03T09:41:07.051Z,22.53
2018-09-03T09:43:34.625Z,21.20
2018-09-03T09:46:02.224Z,17.70
2018-09-03T09:48:29.745Z,19.77
2018-09-03T09:50:57.258Z,16.27
2018-09-03T09:53:24.864Z,17.43
2018-09-03T09:55:52.385Z,23.00
2018-09-03T09:58:19.872Z,19.73
2018-09-03T10:00:52.925Z,20.97
2018-09-03T11:08:52.163Z,16.17
2018-09-03T11:11:19.728Z,17.67
2018-09-03T11:13:47.242Z,17.00
2018-09-03T11:16:14.761Z,16.93
2018-09-03T11:18:42.304Z,15.90
2018-09-03T11:21:09.873Z,17.67
2018-09-03T11:23:37.387Z,16.93
2018-09-03T11:26:05.264Z,17.53
2018-09-03T11:28:32.951Z,17.40
2018-09-03T11:31:00.405Z,16.97
2018-09-03T11:33:27.952Z,18.13
2018-09-03T11:35:55.480Z,16.33
2018-09-03T11:38:23.016Z,17.23
2018-09-03T11:40:50.677Z,17.13
2018-09-03T11:43:18.222Z,15.80
2018-09-03T11:45:45.886Z,16.13
2018-09-03T11:48:13.453Z,16.93
2018-09-03T11:50:40.971Z,14.57
2018-09-03T11:53:08.564Z,15.43
2018-09-03T11:55:36.091Z,14.33
2018-09-03T11:58:03.714Z,15.30
2018-09-03T12:00:31.351Z,16.97
2018-09-03T12:02:59.198Z,15.77
2018-09-03T12:05:27.507Z,15.30
2018-09-03T12:07:55.149Z,15.73
2018-09-03T12:10:22.805Z,16.50
2018-09-03T12:12:50.368Z,16.73
2018-09-03T12:15:23.592Z,14.63
2018-09-03T12:17:51.159Z,15.80
2018-09-03T12:20:18.857Z,14.87
2018-09-03T12:22:46.397Z,15.47
2018-09-03T12:25:13.940Z,16.87
2018-09-03T12:27:41.543Z,15.00
2018-09-03T12:30:09.103Z,15.50
2018-09-03T12:32:36.723Z,15.90
2018-09-03T12:35:04.429Z,14.80
2018-09-03T12:37:31.970Z,15.77
2018-09-03T12:39:59.605Z,14.90
2018-09-03T12:42:27.149Z,12.23
2018-09-03T12:44:54.648Z,13.97
2018-09-03T12:47:22.205Z,13.10
2018-09-03T12:49:49.752Z,13.40
2018-09-03T12:52:17.555Z,13.40
2018-09-03T12:54:45.099Z,14.60
2018-09-03T12:57:12.629Z,13.07
2018-09-03T12:59:40.374Z,13.97
2018-09-03T13:02:08.800Z,14.33
2018-09-03T13:04:36.709Z,14.10
2018-09-03T13:07:04.497Z,14.03
2018-09-03T13:09:32.158Z,13.80
2018-09-03T13:11:59.793Z,13.70
2018-09-03T13:14:27.474Z,13.97
2018-09-03T13:16:55.139Z,12.20
2018-09-03T13:19:22.871Z,13.60
2018-09-03T13:21:50.458Z,12.37
2018-09-03T13:24:18.131Z,12.53
2018-09-03T13:26:45.861Z,13.50
2018-09-03T13:29:13.571Z,12.03
2018-09-03T13:31:41.244Z,13.67
2018-09-03T13:34:09.097Z,12.20
2018-09-03T13:36:36.719Z,13.73
2018-09-03T13:39:06.948Z,12.53
2018-09-03T13:41:34.571Z,12.17
2018-09-03T13:44:02.158Z,12.50
2018-09-03T13:46:29.754Z,12.67
2018-09-03T13:48:57.455Z,11.67
2018-09-03T13:51:25.041Z,13.03
2018-09-03T13:53:53.169Z,9.80
2018-09-03T13:56:20.892Z,9.30
2018-09-03T13:58:48.999Z,8.57
2018-09-03T14:01:16.680Z,8.33
2018-09-03T14:03:44.313Z,6.90
2018-09-03T14:06:11.946Z,6.90
2018-09-03T14:08:39.879Z,7.27
2018-09-03T14:11:07.480Z,9.33
2018-09-03T14:13:35.123Z,10.50
2018-09-03T14:16:02.792Z,11.20
2018-09-03T14:18:30.447Z,10.80
2018-09-03T14:20:58.158Z,10.90
2018-09-03T14:23:25.967Z,9.03
2018-09-03T14:25:53.644Z,9.83
2018-09-03T14:28:21.318Z,10.47
2018-09-03T14:30:48.927Z,12.17
2018-09-03T14:33:16.510Z,8.80
2018-09-03T14:35:44.094Z,12.70
2018-09-03T14:38:11.752Z,15.77
2018-09-03T14:40:39.414Z,18.87
2018-09-03T14:43:07.037Z,15.23
2018-09-03T14:45:34.581Z,11.27
2018-09-03T14:48:02.241Z,10.93
2018-09-03T14:50:29.904Z,10.33
2018-09-03T14:52:57.614Z,10.33
2018-09-03T14:55:25.188Z,9.40
2018-09-03T14:57:52.776Z,9.93
2018-09-03T15:00:20.337Z,8.10
2018-09-03T15:02:47.921Z,8.40
2018-09-03T15:05:15.453Z,7.77
2018-09-03T15:07:43.052Z,8.37
2018-09-03T15:10:10.556Z,8.40
2018-09-03T15:12:38.085Z,9.87
2018-09-03T15:15:05.845Z,8.73
2018-09-03T15:17:33.272Z,8.73
2018-09-03T15:20:00.792Z,9.03
2018-09-03T15:22:28.330Z,9.03
2018-09-03T15:24:55.973Z,9.93
2018-09-03T15:27:23.552Z,8.97
2018-09-03T15:29:51.073Z,10.30
2018-09-03T15:32:18.671Z,8.97
2018-09-03T15:34:46.213Z,9.87
2018-09-03T15:37:13.752Z,9.60
2018-09-03T15:39:41.291Z,9.87
2018-09-03T15:42:08.862Z,9.37
2018-09-03T15:44:36.480Z,8.83
2018-09-03T15:47:04.116Z,10.13
2018-09-03T15:49:31.807Z,10.13
2018-09-03T15:51:59.408Z,9.00
2018-09-03T15:54:26.956Z,9.20
2018-09-03T15:56:54.506Z,8.30
2018-09-03T15:59:22.153Z,8.93
2018-09-03T16:01:49.763Z,8.60
2018-09-03T16:04:17.391Z,11.60
2018-09-03T16:06:45.012Z,9.60
2018-09-03T16:09:12.612Z,8.50
2018-09-03T16:11:40.157Z,9.73
2018-09-03T16:14:08.362Z,8.60
2018-09-03T16:16:36.155Z,8.87
2018-09-03T16:19:03.895Z,8.63
2018-09-03T16:21:31.500Z,9.43
2018-09-03T16:23:59.145Z,8.77
2018-09-03T16:26:26.726Z,8.20
2018-09-03T16:28:54.360Z,8.67
2018-09-03T16:31:21.963Z,7.77
2018-09-03T16:33:49.655Z,8.37
2018-09-03T16:36:17.281Z,11.70
2018-09-03T16:38:44.912Z,8.70
2018-09-03T16:41:12.560Z,10.30
2018-09-03T16:43:40.277Z,9.30
2018-09-03T16:46:07.968Z,10.90
2018-09-03T16:48:35.620Z,9.97
2018-09-03T16:51:03.280Z,9.03
2018-09-03T16:53:30.844Z,8.07
2018-09-03T16:55:58.399Z,8.53
2018-09-03T16:58:25.943Z,8.00
2018-09-03T17:00:53.547Z,6.97
2018-09-03T17:03:21.065Z,7.63
2018-09-03T17:05:48.620Z,7.20
2018-09-03T17:08:16.216Z,7.90
2018-09-03T17:10:43.793Z,7.50
2018-09-03T17:13:11.338Z,7.63
2018-09-03T17:15:38.883Z,7.57
2018-09-03T17:18:06.551Z,8.47
2018-09-03T17:20:34.197Z,8.73
2018-09-03T17:23:01.647Z,10.37
2018-09-03T17:25:29.264Z,10.47
2018-09-03T17:27:56.840Z,10.63
2018-09-03T17:30:24.372Z,9.43
2018-09-03T17:32:51.980Z,9.77
2018-09-03T17:35:20.164Z,10.83
2018-09-03T17:37:47.877Z,11.60
2018-09-03T17:40:15.462Z,11.77
2018-09-03T17:42:43.216Z,12.27
2018-09-03T17:45:10.842Z,11.37
2018-09-03T17:47:39.594Z,12.27
2018-09-03T17:50:07.260Z,12.10
2018-09-03T17:52:34.875Z,12.83
2018-09-03T17:55:02.461Z,13.87
2018-09-03T17:57:30.025Z,13.80
2018-09-03T17:59:57.632Z,14.53
2018-09-03T18:02:26.116Z,15.90
2018-09-03T18:04:53.734Z,14.03
2018-09-03T18:07:21.340Z,13.37
2018-09-03T18:09:48.925Z,16.57
2018-09-03T18:12:16.541Z,13.30
2018-09-03T18:14:44.153Z,14.60
2018-09-03T18:17:11.854Z,11.40
2018-09-03T18:19:39.551Z,11.43
2018-09-03T18:22:07.166Z,10.80
2018-09-03T18:24:34.789Z,11.47
2018-09-03T18:27:02.411Z,10.20
2018-09-03T18:29:30.025Z,12.37
2018-09-03T18:31:58.264Z,11.00
2018-09-03T18:34:25.904Z,12.43
2018-09-03T18:36:53.691Z,11.20
2018-09-03T18:39:21.387Z,10.43
2018-09-03T18:41:49.107Z,12.67
2018-09-03T18:44:16.971Z,12.50
2018-09-03T18:46:44.709Z,12.30
2018-09-03T18:49:12.473Z,12.63
2018-09-03T18:51:40.598Z,13.10
2018-09-03T18:54:08.863Z,12.03
2018-09-03T18:56:36.666Z,12.30
2018-09-03T18:59:05.017Z,14.00
2018-09-03T19:01:32.773Z,14.83
2018-09-03T19:04:00.632Z,12.20
2018-09-03T19:06:28.396Z,13.53
2018-09-03T19:08:56.242Z,14.10
2018-09-03T19:11:24.076Z,12.70
2018-09-03T19:13:51.904Z,12.90
2018-09-03T19:16:19.657Z,12.20
2018-09-03T19:18:47.699Z,11.67
2018-09-03T19:21:15.830Z,12.90
2018-09-03T19:23:43.918Z,12.27
2018-09-03T19:26:11.766Z,10.63
2018-09-03T19:28:39.701Z,12.17
2018-09-03T19:31:07.976Z,13.00
2018-09-03T19:33:36.981Z,13.10
2018-09-03T19:36:04.950Z,13.33
2018-09-03T19:38:32.995Z,12.57
2018-09-03T19:41:01.173Z,12.83
2018-09-03T19:43:29.416Z,13.03
2018-09-03T19:45:57.330Z,13.77
2018-09-03T19:48:25.074Z,13.50
2018-09-03T19:50:53.056Z,14.73
2018-09-03T19:53:21.152Z,13.77
2018-09-03T19:55:49.050Z,15.27
2018-09-03T19:58:16.959Z,14.83
2018-09-03T20:00:44.831Z,16.13
2018-09-03T20:03:12.670Z,16.60
2018-09-03T20:05:40.567Z,16.43
2018-09-03T20:08:08.183Z,15.97
2018-09-03T20:10:36.087Z,15.77
2018-09-03T20:13:03.732Z,17.77
2018-09-03T20:15:31.592Z,15.17
2018-09-03T20:17:59.270Z,15.47
2018-09-03T20:20:26.858Z,16.07
2018-09-03T20:22:54.833Z,14.47
2018-09-03T20:25:22.640Z,14.70
2018-09-03T20:27:50.433Z,13.07
2018-09-03T20:30:18.137Z,13.03
2018-09-03T20:32:45.751Z,12.77
2018-09-03T20:35:13.438Z,12.13
2018-09-03T20:37:41.047Z,15.30
2018-09-03T20:40:08.706Z,13.53
2018-09-03T20:42:36.372Z,11.93
2018-09-03T20:45:04.117Z,12.90
2018-09-03T20:47:31.796Z,14.30
2018-09-03T20:49:59.444Z,12.73
2018-09-03T20:52:27.115Z,12.53
2018-09-03T20:54:55.329Z,13.13
2018-09-03T20:57:22.950Z,12.37
2018-09-03T20:59:50.503Z,11.63
2018-09-03T21:02:18.055Z,12.60
2018-09-03T21:04:45.650Z,13.27
2018-09-03T21:07:13.615Z,12.87
2018-09-03T21:09:41.183Z,12.07
2018-09-03T21:12:08.856Z,13.30
2018-09-03T21:14:36.509Z,13.00
2018-09-03T21:17:04.236Z,13.50
2018-09-03T21:19:31.822Z,11.37
2018-09-03T21:21:59.472Z,11.33
2018-09-03T21:24:27.062Z,11.77
2018-09-03T21:26:54.649Z,12.00
2018-09-03T21:29:22.215Z,10.40
2018-09-03T21:31:49.875Z,9.37
2018-09-03T21:34:17.442Z,11.13
2018-09-03T21:36:45.057Z,10.20
2018-09-03T21:39:12.678Z,10.53
2018-09-03T21:41:40.311Z,9.90
2018-09-03T21:44:07.977Z,10.13
2018-09-03T21:46:35.524Z,10.70
2018-09-03T21:49:03.113Z,10.77
2018-09-03T21:51:30.715Z,11.80
2018-09-03T21:53:58.302Z,10.10
2018-09-03T21:56:25.809Z,11.80
2018-09-03T21:58:53.403Z,15.40
2018-09-03T22:01:20.951Z,12.10
2018-09-03T22:03:48.472Z,12.43
2018-09-03T22:06:16.047Z,11.43
2018-09-03T22:08:43.652Z,10.60
2018-09-03T22:11:11.220Z,11.67
2018-09-03T22:13:38.772Z,12.80
2018-09-03T22:16:08.050Z,11.00
2018-09-03T22:18:37.146Z,11.77
2018-09-03T22:21:04.818Z,12.10
2018-09-03T22:23:32.385Z,11.77
2018-09-03T22:25:59.909Z,13.10
2018-09-03T22:28:27.402Z,14.00
2018-09-03T22:30:55.026Z,12.87
2018-09-03T22:33:22.703Z,13.87
2018-09-03T22:35:50.269Z,13.10
2018-09-03T22:38:17.772Z,13.77
2018-09-03T22:40:45.316Z,14.07
2018-09-03T22:43:12.853Z,15.87
2018-09-03T22:45:40.405Z,14.87
2018-09-03T22:48:08.069Z,16.83
2018-09-03T22:50:35.603Z,16.07
2018-09-03T22:53:03.102Z,18.40
2018-09-03T22:55:30.921Z,16.50
2018-09-03T22:57:58.406Z,21.30
2018-09-03T23:00:25.961Z,21.17
2018-09-03T23:02:53.511Z,24.93
2018-09-03T23:05:21.071Z,25.83
2018-09-03T23:07:48.596Z,27.90
2018-09-03T23:10:16.116Z,19.93
2018-09-03T23:12:43.658Z,20.97
2018-09-03T23:15:11.186Z,24.10
2018-09-03T23:17:38.686Z,21.10
2018-09-03T23:20:06.312Z,25.80
2018-09-03T23:22:33.831Z,22.70
2018-09-03T23:25:01.311Z,23.13
2018-09-03T23:27:28.835Z,28.30
2018-09-03T23:29:56.421Z,22.47
2018-09-03T23:32:23.992Z,20.37
2018-09-03T23:34:51.472Z,21.13
2018-09-03T23:37:18.955Z,23.43
2018-09-03T23:39:46.467Z,21.57
2018-09-03T23:42:13.960Z,32.43
2018-09-03T23:44:41.477Z,35.53
2018-09-03T23:47:09.037Z,26.57
2018-09-03T23:49:36.543Z,37.33
2018-09-03T23:52:04.359Z,23.50
2018-09-03T23:54:31.879Z,17.70
2018-09-03T23:56:59.455Z,18.17
2018-09-03T23:59:26.987Z,18.73
